Time;durP1;ratioP1;P1;durP2;ratioP2;P2;SDS_P1;SDS_P2;PMS_P1;PMS_P2;Temp;Humidity;BMP_temperature;BMP_pressure;BME280_temperature;BME280_humidity;BME280_pressure;Samples;Min_cycle;Max_cycle;Signal;HPM_P1;HPM_P2
2022/11/29 00:02:30;;;;;;;2.55;1.30;;;;;;;19.75;43.74;101323.13;16131963;19;133584;-40
2022/11/29 00:07:52;;;;;;;2.40;1.33;;;;;;;19.71;43.48;101335.81;16130211;19;129206;-39
2022/11/29 00:13:13;;;;;;;2.70;1.35;;;;;;;19.67;43.29;101327.13;16129607;19;129689;-42
2022/11/29 00:18:35;;;;;;;1.65;0.90;;;;;;;19.63;43.68;101323.13;16130559;19;129647;-41
2022/11/29 00:23:57;;;;;;;2.30;0.90;;;;;;;19.58;43.58;101320.22;16126696;19;129629;-39
2022/11/29 00:29:19;;;;;;;2.33;1.20;;;;;;;19.57;43.39;101329.66;16124120;19;129615;-40
2022/11/29 00:34:41;;;;;;;2.60;1.00;;;;;;;19.53;43.29;101326.53;16127312;19;130176;-39
2022/11/29 00:40:04;;;;;;;4.05;1.23;;;;;;;19.51;43.75;101342.56;16124466;19;129421;-39
2022/11/29 00:45:26;;;;;;;1.75;1.00;;;;;;;19.49;43.38;101332.81;16127154;19;129348;-40
2022/11/29 00:50:47;;;;;;;1.52;0.80;;;;;;;19.47;43.66;101344.16;16126605;19;129984;-42
2022/11/29 00:56:09;;;;;;;1.73;0.90;;;;;;;19.45;43.78;101353.78;16127089;19;130034;-41
2022/11/29 01:01:31;;;;;;;1.55;1.00;;;;;;;19.42;43.80;101344.03;16126823;19;130149;-40
2022/11/29 01:06:53;;;;;;;3.92;0.80;;;;;;;19.41;43.37;101353.44;16127018;19;130284;-39
2022/11/29 01:12:14;;;;;;;1.48;0.70;;;;;;;19.37;43.54;101347.53;16123974;19;129651;-40
2022/11/29 01:17:39;;;;;;;1.00;0.68;;;;;;;19.37;43.73;101360.56;16124727;19;129722;-41
2022/11/29 01:23:00;;;;;;;1.40;0.90;;;;;;;19.34;43.77;101361.03;16123281;19;129566;-39
2022/11/29 01:28:22;;;;;;;1.92;1.05;;;;;;;19.33;43.49;101367.66;16120329;19;129838;-39
2022/11/29 01:33:45;;;;;;;0.70;0.60;;;;;;;19.31;43.36;101375.38;16123965;19;129501;-39
2022/11/29 01:39:07;;;;;;;1.05;0.70;;;;;;;19.30;43.69;101384.78;16124638;19;129371;-40
2022/11/29 01:44:28;;;;;;;0.95;0.70;;;;;;;19.27;43.75;101380.56;16121343;19;130262;-40
2022/11/29 01:49:50;;;;;;;1.15;0.77;;;;;;;19.26;43.80;101392.75;16123264;19;129880;-38
2022/11/29 01:55:13;;;;;;;1.70;0.88;;;;;;;19.23;43.53;101396.00;16125383;19;129879;-41
2022/11/29 02:00:35;;;;;;;0.82;0.60;;;;;;;19.21;43.85;101396.25;16124526;19;130713;-40
2022/11/29 02:05:58;;;;;;;1.15;0.70;;;;;;;19.20;43.45;101399.22;16119963;19;129610;-39
2022/11/29 02:11:48;;;;;;;1.98;0.70;;;;;;;19.19;43.51;101411.41;16123555;19;129202;-39
2022/11/29 02:17:34;;;;;;;0.82;0.70;;;;;;;19.17;43.56;101408.84;16120729;19;129932;-39
2022/11/29 02:23:30;;;;;;;1.02;0.65;;;;;;;19.16;43.59;101417.44;16120088;19;129303;-40
2022/11/29 02:29:10;;;;;;;1.13;0.60;;;;;;;19.14;43.86;101408.50;16121341;19;129424;-39
2022/11/29 02:35:01;;;;;;;1.55;0.50;;;;;;;19.12;43.62;101421.75;16120428;19;129741;-39
2022/11/29 02:40:57;;;;;;;0.75;0.60;;;;;;;19.11;43.47;101420.91;16118201;19;130202;-39
2022/11/29 02:46:30;;;;;;;0.75;0.57;;;;;;;19.08;43.89;101429.69;16118204;19;129793;-40
2022/11/29 02:52:01;;;;;;;0.93;0.70;;;;;;;19.07;43.80;101428.00;16121734;19;129633;-42
2022/11/29 02:57:44;;;;;;;0.63;0.60;;;;;;;19.06;43.56;101435.50;16133138;19;129241;-39
2022/11/29 03:03:20;;;;;;;0.55;0.50;;;;;;;19.04;43.42;101448.75;16132821;19;129623;-43
2022/11/29 03:09:06;;;;;;;0.50;0.50;;;;;;;19.03;43.35;101452.59;16132767;19;129900;-39
2022/11/29 03:14:57;;;;;;;0.47;0.43;;;;;;;19.02;43.78;101458.38;16133808;19;129487;-39
2022/11/29 03:20:45;;;;;;;0.40;0.40;;;;;;;19.00;43.62;101463.31;16131946;19;129662;-40
2022/11/29 03:26:13;;;;;;;1.00;0.68;;;;;;;18.97;43.71;101464.63;16131692;19;130360;-39
2022/11/29 03:31:39;;;;;;;0.55;0.55;;;;;;;18.98;43.31;101479.34;16132193;19;134012;-41
2022/11/29 03:37:10;;;;;;;0.93;0.75;;;;;;;18.95;43.27;101472.34;16129971;19;129081;-39
2022/11/29 03:42:43;;;;;;;0.82;0.60;;;;;;;18.95;43.32;101488.13;16134538;19;129045;-39
2022/11/29 03:48:14;;;;;;;0.70;0.60;;;;;;;18.94;43.56;101503.06;16129353;19;130239;-39
2022/11/29 03:53:58;;;;;;;0.55;0.55;;;;;;;18.88;43.37;101494.63;16128710;19;129552;-39
2022/11/29 03:59:47;;;;;;;0.60;0.50;;;;;;;18.89;43.35;101484.38;16129983;19;130713;-39
2022/11/29 04:05:31;;;;;;;0.55;0.50;;;;;;;18.86;43.32;101487.59;16122585;19;129838;-39
2022/11/29 04:11:09;;;;;;;0.80;0.63;;;;;;;18.85;43.71;101488.69;16125885;19;129886;-39
2022/11/29 04:16:49;;;;;;;0.45;0.45;;;;;;;18.83;43.76;101497.25;16128856;19;129837;-39
2022/11/29 04:22:34;;;;;;;0.60;0.60;;;;;;;18.82;43.41;101500.25;16127949;19;129627;-39
2022/11/29 04:28:14;;;;;;;0.60;0.60;;;;;;;18.81;43.78;101513.25;16128025;19;129360;-39
2022/11/29 04:33:54;;;;;;;0.60;0.57;;;;;;;18.81;43.37;101517.97;16128935;19;130186;-39
2022/11/29 04:39:29;;;;;;;0.50;0.50;;;;;;;18.77;43.82;101510.13;16127757;19;130588;-40
2022/11/29 04:45:17;;;;;;;0.70;0.70;;;;;;;18.77;43.50;101510.13;16126397;19;129304;-39
2022/11/29 04:50:52;;;;;;;0.90;0.60;;;;;;;18.76;43.80;101525.06;16127317;19;129338;-41
2022/11/29 04:56:45;;;;;;;0.50;0.50;;;;;;;18.75;43.63;101526.13;16127605;19;130507;-39
2022/11/29 05:02:26;;;;;;;0.88;0.55;;;;;;;18.74;43.65;101524.44;16125648;19;129787;-42
2022/11/29 05:08:12;;;;;;;0.40;0.40;;;;;;;18.73;43.46;101536.59;16124808;19;130008;-39
2022/11/29 05:14:11;;;;;;;1.17;0.45;;;;;;;18.71;43.50;101549.84;16126983;19;130304;-40
2022/11/29 05:19:53;;;;;;;0.43;0.43;;;;;;;18.70;43.86;101556.47;16127209;19;129564;-40
2022/11/29 05:25:52;;;;;;;0.85;0.40;;;;;;;18.69;43.74;101553.91;16127553;19;134488;-39
2022/11/29 05:31:51;;;;;;;1.73;0.63;;;;;;;18.68;43.53;101577.16;16123581;19;129499;-38
2022/11/29 05:37:31;;;;;;;0.70;0.60;;;;;;;18.66;43.39;101566.31;16126792;19;129538;-39
2022/11/29 05:43:20;;;;;;;0.50;0.50;;;;;;;18.65;43.62;101578.50;16124507;19;130171;-39
2022/11/29 05:48:55;;;;;;;0.65;0.60;;;;;;;18.61;43.39;101580.88;16124112;19;129789;-39
2022/11/29 05:54:46;;;;;;;0.70;0.52;;;;;;;18.62;43.78;101595.56;16121206;19;129981;-39
2022/11/29 06:00:11;;;;;;;0.60;0.50;;;;;;;18.62;43.34;101601.13;16120759;19;129382;-39
2022/11/29 06:05:55;;;;;;;0.40;0.40;;;;;;;18.61;43.28;101610.50;16122195;19;130974;-39
2022/11/29 06:11:37;;;;;;;0.80;0.50;;;;;;;18.63;43.63;101607.53;16120933;19;129669;-39
2022/11/29 06:17:35;;;;;;;0.40;0.40;;;;;;;18.63;43.45;101619.44;16121428;19;130202;-40
2022/11/29 06:23:47;;;;;;;0.40;0.40;;;;;;;18.63;43.41;101626.91;16122058;19;130339;-39
2022/11/29 06:29:12;;;;;;;0.40;0.30;;;;;;;18.63;43.67;101636.06;16119715;19;129405;-39
2022/11/29 06:35:01;;;;;;;4.53;0.60;;;;;;;18.63;43.18;101641.59;16123011;19;129601;-39
2022/11/29 06:40:23;;;;;;;0.52;0.52;;;;;;;18.61;43.39;101654.84;16119223;19;129521;-39
2022/11/29 06:45:56;;;;;;;1.50;0.40;;;;;;;18.61;43.12;101650.16;16120539;19;129335;-39
2022/11/29 06:51:23;;;;;;;0.55;0.50;;;;;;;18.59;43.21;101649.53;16118263;19;129695;-41
2022/11/29 06:56:51;;;;;;;2.05;0.47;;;;;;;18.59;43.42;101659.75;16117496;19;129638;-39
2022/11/29 07:02:27;;;;;;;0.40;0.40;;;;;;;18.57;43.12;101664.72;16114249;19;130174;-39
2022/11/29 07:07:52;;;;;;;1.48;0.55;;;;;;;18.56;43.26;101663.00;16120605;19;130081;-40
2022/11/29 07:13:16;;;;;;;0.30;0.30;;;;;;;18.56;43.28;101674.09;16117683;19;129673;-39
2022/11/29 07:18:59;;;;;;;0.63;0.45;;;;;;;18.56;43.02;101688.78;16116395;19;130438;-39
2022/11/29 07:24:36;;;;;;;0.80;0.70;;;;;;;18.53;43.42;101692.00;16116216;19;129641;-39
2022/11/29 07:30:15;;;;;;;0.95;0.80;;;;;;;18.53;43.09;101714.16;16117101;19;129741;-40
2022/11/29 07:35:46;;;;;;;1.08;0.50;;;;;;;18.51;43.04;101709.94;16117526;19;129689;-39
2022/11/29 07:41:45;;;;;;;0.98;0.60;;;;;;;18.51;43.33;101726.56;16124460;19;130175;-39
2022/11/29 07:47:07;;;;;;;1.08;0.40;;;;;;;18.46;43.14;101725.31;16127700;19;129257;-39
2022/11/29 07:52:29;;;;;;;0.73;0.50;;;;;;;18.45;43.43;101718.09;16131382;19;130918;-39
2022/11/29 07:57:51;;;;;;;0.90;0.50;;;;;;;18.44;43.23;101721.94;16129360;19;130405;-40
2022/11/29 08:03:13;;;;;;;3.95;0.93;;;;;;;18.44;43.09;101721.06;16130361;19;130561;-39
2022/11/29 08:08:35;;;;;;;3.40;0.95;;;;;;;18.42;42.99;101726.84;16130922;19;130372;-39
2022/11/29 08:14:04;;;;;;;1.65;1.10;;;;;;;18.43;42.98;101730.47;16127652;19;129782;-39
2022/11/29 08:19:26;;;;;;;2.53;1.20;;;;;;;18.42;43.33;101735.16;16129740;19;129335;-40
2022/11/29 08:24:48;;;;;;;3.05;0.80;;;;;;;18.40;43.10;101745.63;16129234;19;129173;-39
2022/11/29 08:30:10;;;;;;;0.60;0.60;;;;;;;18.39;43.34;101762.44;16126716;19;129483;-40
2022/11/29 08:35:34;;;;;;;1.95;0.77;;;;;;;18.38;43.31;101758.81;16129606;19;129674;-39
2022/11/29 08:41:01;;;;;;;1.60;0.70;;;;;;;18.39;43.09;101757.78;16127526;19;129438;-39
2022/11/29 08:47:34;;;;;;;2.15;0.70;;;;;;;18.38;43.19;101766.28;16125930;19;129448;-39
2022/11/29 08:57:45;;;;;;;1.27;0.80;;;;;;;18.37;42.98;101781.19;16125099;19;130179;-39
2022/11/29 09:08:47;;;;;;;2.55;1.00;;;;;;;18.33;43.27;101783.56;16123111;19;129347;-39
2022/11/29 09:14:14;;;;;;;2.05;0.90;;;;;;;18.36;43.13;101791.41;16124858;19;129648;-38
2022/11/29 09:19:36;;;;;;;2.83;0.80;;;;;;;18.35;43.00;101795.25;16125022;19;129887;-39
2022/11/29 09:24:57;;;;;;;1.67;0.77;;;;;;;18.37;43.12;101803.38;16127303;19;129118;-39
2022/11/29 09:30:19;;;;;;;1.77;0.68;;;;;;;18.37;43.18;101801.44;16123551;19;129543;-41
2022/11/29 09:35:44;;;;;;;0.70;0.60;;;;;;;18.38;43.09;101805.91;16124193;19;129827;-38
2022/11/29 09:41:41;;;;;;;2.58;0.60;;;;;;;18.41;43.29;101811.03;16123382;19;129506;-38
2022/11/29 09:47:08;;;;;;;2.20;0.95;;;;;;;18.36;43.12;101819.13;16121758;19;130862;-39
2022/11/29 09:52:53;;;;;;;2.25;0.82;;;;;;;18.41;43.29;101830.44;16123144;19;133874;-40
2022/11/29 09:58:20;;;;;;;2.88;0.90;;;;;;;18.39;43.30;101832.56;16121182;19;134026;-39
2022/11/29 10:03:45;;;;;;;1.38;0.75;;;;;;;18.40;43.33;101836.22;16115549;19;129252;-39
2022/11/29 10:09:52;;;;;;;3.05;1.10;;;;;;;18.36;42.96;101832.97;16121049;19;128947;-40
2022/11/29 10:15:30;;;;;;;2.30;1.15;;;;;;;18.38;42.94;101825.28;16108062;19;129516;-40
2022/11/29 10:20:57;;;;;;;2.10;0.80;;;;;;;18.40;42.83;101825.13;16112254;19;130015;-39
2022/11/29 10:26:23;;;;;;;1.05;0.95;;;;;;;18.38;42.94;101827.22;16108513;19;130571;-39
2022/11/29 10:31:55;;;;;;;2.25;1.08;;;;;;;18.38;43.17;101828.06;16111821;19;129707;-41
2022/11/29 10:37:20;;;;;;;1.70;1.00;;;;;;;18.38;43.25;101828.06;16112572;19;129889;-39
2022/11/29 10:42:48;;;;;;;2.58;1.20;;;;;;;18.38;42.93;101828.06;16116311;19;131036;-39
2022/11/29 10:48:19;;;;;;;2.78;1.70;;;;;;;18.38;42.79;101832.78;16118611;19;134914;-39
2022/11/29 10:53:41;;;;;;;2.05;1.40;;;;;;;18.36;42.95;101829.38;16122400;19;129741;-39
2022/11/29 10:59:07;;;;;;;3.10;1.10;;;;;;;18.34;42.76;101832.34;16121306;19;129740;-40
2022/11/29 11:04:43;;;;;;;1.80;1.08;;;;;;;18.35;42.81;101827.66;16112193;19;129938;-40
2022/11/29 11:10:27;;;;;;;1.35;1.10;;;;;;;18.34;42.87;101848.13;16111198;19;129301;-40
2022/11/29 11:15:54;;;;;;;2.83;2.00;;;;;;;18.30;43.18;101843.03;16123923;19;129696;-39
2022/11/29 11:21:19;;;;;;;2.05;1.40;;;;;;;18.30;43.06;101844.97;16132004;19;129608;-38
2022/11/29 11:26:43;;;;;;;2.97;2.00;;;;;;;18.30;42.93;101847.72;16133613;19;129661;-39
2022/11/29 11:32:17;;;;;;;2.55;1.70;;;;;;;18.33;43.05;101844.53;16132065;19;130519;-38
2022/11/29 11:37:39;;;;;;;4.97;2.00;;;;;;;18.33;43.11;101852.84;16133614;19;130481;-39
2022/11/29 11:43:02;;;;;;;4.22;2.40;;;;;;;18.32;42.93;101834.50;16132258;19;129355;-39
2022/11/29 11:48:24;;;;;;;5.22;2.25;;;;;;;18.31;43.12;101860.50;16129369;19;128929;-39
2022/11/29 11:53:51;;;;;;;5.82;2.42;;;;;;;18.30;43.15;101858.81;16133126;19;129317;-38
2022/11/29 11:59:19;;;;;;;3.72;2.50;;;;;;;18.32;43.06;101862.22;16134030;19;129404;-39
2022/11/29 12:04:41;;;;;;;4.90;3.10;;;;;;;18.28;43.23;101866.47;16133703;19;129804;-38
2022/11/29 12:10:10;;;;;;;5.30;3.40;;;;;;;18.27;42.88;101879.50;16131474;19;130235;-38
2022/11/29 12:15:37;;;;;;;4.43;3.15;;;;;;;18.27;43.04;101881.41;16131349;19;129337;-40
2022/11/29 12:21:04;;;;;;;4.80;3.38;;;;;;;18.25;42.84;101887.19;16129125;19;130017;-38
2022/11/29 12:26:37;;;;;;;6.15;2.80;;;;;;;18.28;43.24;101894.19;16130082;19;129203;-39
2022/11/29 12:32:42;;;;;;;3.60;2.78;;;;;;;18.25;42.96;101897.38;16127983;19;129964;-38
2022/11/29 12:38:07;;;;;;;5.35;2.90;;;;;;;18.23;43.07;101899.53;16126957;19;130327;-38
2022/11/29 12:43:53;;;;;;;4.70;3.87;;;;;;;18.22;43.20;101900.59;16128124;19;131561;-38
2022/11/29 12:50:03;;;;;;;5.38;4.32;;;;;;;18.20;43.10;101911.06;16126367;19;130637;-40
2022/11/29 12:55:46;;;;;;;7.45;4.80;;;;;;;18.19;42.77;101920.44;16128134;19;129462;-39
2022/11/29 13:01:21;;;;;;;5.30;4.30;;;;;;;18.16;43.16;101930.00;16123243;19;128886;-38
2022/11/29 13:07:02;;;;;;;8.00;4.13;;;;;;;18.17;42.89;101925.34;16126138;19;129382;-38
2022/11/29 13:12:40;;;;;;;4.25;3.83;;;;;;;18.15;43.23;101929.19;16126259;19;129574;-38
2022/11/29 13:18:18;;;;;;;5.43;3.67;;;;;;;18.14;43.03;101927.47;16124925;19;129853;-39
2022/11/29 13:23:51;;;;;;;6.68;4.30;;;;;;;18.14;43.09;101938.56;16126007;19;129688;-38
2022/11/29 13:29:30;;;;;;;5.07;4.05;;;;;;;18.11;43.34;101936.22;16123936;19;136138;-38
2022/11/29 13:34:57;;;;;;;7.45;4.60;;;;;;;18.12;43.12;101934.31;16122747;19;129973;-39
2022/11/29 13:40:47;;;;;;;10.32;4.55;;;;;;;18.13;42.89;101936.00;16120692;19;129923;-39
2022/11/29 13:46:18;;;;;;;6.13;4.10;;;;;;;18.11;42.96;101927.91;16123013;19;129577;-41
2022/11/29 13:51:40;;;;;;;6.70;3.97;;;;;;;18.12;43.41;101924.06;16124674;19;130218;-40
2022/11/29 13:57:05;;;;;;;7.97;3.55;;;;;;;18.13;43.24;101931.31;16125334;19;130041;-38
2022/11/29 14:02:29;;;;;;;6.40;4.22;;;;;;;18.13;43.39;101931.31;16122168;19;128977;-38
2022/11/29 14:08:26;;;;;;;11.20;4.03;;;;;;;18.17;43.31;101930.88;16124435;19;129686;-40
2022/11/29 14:14:14;;;;;;;7.50;4.25;;;;;;;18.14;43.04;101927.47;16120257;19;129588;-41
2022/11/29 14:19:36;;;;;;;12.43;4.80;;;;;;;18.13;43.46;101936.84;16119977;19;129935;-38
2022/11/29 14:25:19;;;;;;;13.02;4.90;;;;;;;18.13;43.05;101931.31;16122732;19;129793;-39
2022/11/29 14:31:02;;;;;;;10.75;4.32;;;;;;;18.12;43.38;101940.69;16119485;19;129593;-38
2022/11/29 14:36:40;;;;;;;8.90;4.57;;;;;;;18.14;43.29;101946.88;16120267;19;129568;-38
2022/11/29 14:42:24;;;;;;;10.68;4.53;;;;;;;18.13;43.31;101953.47;16121929;19;129441;-38
2022/11/29 14:47:49;;;;;;;5.93;3.70;;;;;;;18.12;43.48;101957.31;16120011;19;129690;-38
2022/11/29 14:53:33;;;;;;;7.83;4.17;;;;;;;18.12;43.47;101957.31;16133496;19;130029;-42
2022/11/29 14:59:32;;;;;;;10.25;3.58;;;;;;;18.11;43.46;101952.81;16137321;19;129618;-47
2022/11/29 15:04:56;;;;;;;12.82;4.20;;;;;;;18.08;43.44;101964.38;16130791;19;129687;-39
2022/11/29 15:10:25;;;;;;;8.25;4.53;;;;;;;18.09;43.35;101966.03;16127386;19;130326;-42
2022/11/29 15:16:18;;;;;;;7.30;4.28;;;;;;;18.08;43.00;101961.59;16133030;19;129793;-39
2022/11/29 15:22:08;;;;;;;5.45;3.90;;;;;;;18.06;43.14;101972.03;16132572;19;129771;-39
2022/11/29 15:27:30;;;;;;;6.43;3.45;;;;;;;18.04;43.46;101976.94;16134827;19;135619;-39
2022/11/29 15:32:58;;;;;;;9.43;3.47;;;;;;;18.04;43.60;101978.84;16132601;19;129644;-43
2022/11/29 15:38:22;;;;;;;7.28;4.47;;;;;;;18.03;43.32;101975.22;16130046;19;130087;-40
2022/11/29 15:43:48;;;;;;;8.80;5.13;;;;;;;18.02;43.03;101979.06;16128990;19;129281;-42
2022/11/29 15:49:23;;;;;;;;;;;;;;;17.98;43.09;101975.00;16130353;19;129287;-39
2022/11/29 15:54:50;;;;;;;6.65;4.38;;;;;;;18.02;43.45;101989.31;16131754;19;129964;-38
2022/11/29 16:00:22;;;;;;;3.72;3.30;;;;;;;18.05;43.38;101995.25;16127325;19;131104;-39
2022/11/29 16:05:49;;;;;;;7.15;4.22;;;;;;;18.14;42.91;101999.47;16129112;19;129422;-40
2022/11/29 16:11:19;;;;;;;5.68;3.40;;;;;;;18.35;42.92;101994.72;16126278;19;130305;-38
2022/11/29 16:16:43;;;;;;;8.27;3.03;;;;;;;18.57;42.79;101991.72;16127355;19;129506;-38
2022/11/29 16:22:11;;;;;;;5.10;3.03;;;;;;;18.80;42.48;101995.84;16123702;19;130232;-38
2022/11/29 16:27:34;;;;;;;5.70;3.47;;;;;;;18.94;42.06;102003.03;16127414;19;129677;-38
2022/11/29 16:32:58;;;;;;;4.88;3.40;;;;;;;19.03;41.93;102006.38;16124318;19;129695;-42
2022/11/29 16:38:22;;;;;;;9.07;4.07;;;;;;;19.04;42.11;102003.41;16125803;19;130069;-38
2022/11/29 16:43:52;;;;;;;6.38;4.00;;;;;;;19.00;41.83;102004.91;16127379;19;129918;-39
2022/11/29 16:49:35;;;;;;;7.07;4.03;;;;;;;18.95;41.61;101998.31;16124222;19;130490;-38
2022/11/29 16:54:57;;;;;;;7.07;4.15;;;;;;;18.86;41.51;102000.50;16125135;19;129695;-38
2022/11/29 17:00:24;;;;;;;12.80;5.25;;;;;;;18.77;41.60;102011.84;16125059;19;129742;-38
2022/11/29 17:05:45;;;;;;;8.65;4.13;;;;;;;18.71;41.96;102001.63;16126535;19;129853;-38
2022/11/29 17:11:10;;;;;;;8.77;4.47;;;;;;;18.67;42.13;102003.16;16123558;19;130262;-38
2022/11/29 17:16:31;;;;;;;8.75;4.85;;;;;;;18.61;42.16;102009.56;16122984;19;129518;-38
2022/11/29 17:21:53;;;;;;;6.35;3.65;;;;;;;18.56;42.30;102006.63;16125210;19;129400;-38
2022/11/29 17:27:15;;;;;;;8.35;4.40;;;;;;;18.52;42.03;102010.91;16124654;19;135301;-38
2022/11/29 17:32:37;;;;;;;9.43;4.18;;;;;;;18.54;42.19;102019.84;16122109;19;130225;-38
2022/11/29 17:37:59;;;;;;;7.95;3.92;;;;;;;18.67;42.25;102025.34;16125538;19;129741;-38
2022/11/29 17:43:20;;;;;;;6.72;3.33;;;;;;;18.92;41.92;102030.13;16121433;19;129592;-41
2022/11/29 17:48:45;;;;;;;10.63;3.70;;;;;;;19.17;42.17;102037.66;16120307;19;128986;-39
2022/11/29 17:54:07;;;;;;;6.60;3.50;;;;;;;19.38;41.72;102047.59;16121189;19;129507;-38
2022/11/29 17:59:29;;;;;;;6.10;3.40;;;;;;;19.47;41.40;102045.38;16122669;19;129244;-41
2022/11/29 18:04:50;;;;;;;4.47;2.97;;;;;;;19.51;41.79;102058.59;16121508;19;131705;-39
2022/11/29 18:10:12;;;;;;;6.13;2.72;;;;;;;19.49;41.70;102066.31;16122290;19;129789;-39
2022/11/29 18:15:34;;;;;;;4.00;3.10;;;;;;;19.45;41.76;102069.72;16119416;19;131327;-38
2022/11/29 18:20:58;;;;;;;5.00;2.95;;;;;;;19.38;41.97;102064.25;16121507;19;129566;-40
2022/11/29 18:26:22;;;;;;;4.95;3.40;;;;;;;19.32;42.00;102065.97;16116764;19;129636;-39
2022/11/29 18:31:45;;;;;;;6.85;3.20;;;;;;;19.23;41.88;102067.31;16118021;19;129332;-40
2022/11/29 18:37:06;;;;;;;20.75;4.65;;;;;;;19.18;42.35;102065.19;16116866;19;129319;-39
2022/11/29 18:42:37;;;;;;;15.80;3.78;;;;;;;19.20;42.42;102076.06;16118771;19;129722;-39
2022/11/29 18:47:59;;;;;;;29.75;3.90;;;;;;;19.32;42.28;102077.06;16119451;19;129816;-39
2022/11/29 18:53:20;;;;;;;18.13;4.20;;;;;;;19.66;42.04;102071.28;16114546;19;129480;-39
2022/11/29 18:58:45;;;;;;;13.50;3.85;;;;;;;20.13;42.07;102080.09;16116488;19;131010;-42
2022/11/29 19:04:09;;;;;;;26.48;4.07;;;;;;;20.64;41.41;102076.38;16115182;19;129564;-39
2022/11/29 19:09:31;;;;;;;24.43;4.80;;;;;;;21.08;41.00;102077.09;16117353;19;130467;-39
2022/11/29 19:14:53;;;;;;;12.95;4.03;;;;;;;21.42;40.43;102088.59;16115206;19;129808;-39
2022/11/29 19:20:15;;;;;;;24.63;4.38;;;;;;;21.73;40.15;102092.25;16115162;19;130472;-39
2022/11/29 19:25:37;;;;;;;11.25;4.05;;;;;;;21.95;40.12;102086.94;16114178;19;129774;-39
2022/11/29 19:30:59;;;;;;;16.67;4.05;;;;;;;22.03;39.84;102099.66;16113823;19;129709;-39
2022/11/29 19:36:29;;;;;;;11.35;3.83;;;;;;;21.99;39.85;102087.31;16121256;19;129950;-39
2022/11/29 19:41:50;;;;;;;10.05;4.13;;;;;;;21.84;40.01;102101.72;16131105;19;131762;-40
2022/11/29 19:47:12;;;;;;;8.65;3.83;;;;;;;21.67;40.22;102107.09;16128844;19;129670;-40
2022/11/29 19:52:34;;;;;;;13.45;4.55;;;;;;;21.47;40.73;102113.81;16131410;19;129176;-40
2022/11/29 19:57:55;;;;;;;27.75;4.82;;;;;;;21.28;40.64;102109.41;16128345;19;131411;-42
2022/11/29 20:03:17;;;;;;;15.85;3.67;;;;;;;21.11;41.44;102121.16;16126138;19;129312;-40
2022/11/29 20:08:40;;;;;;;10.80;3.42;;;;;;;20.94;41.50;102120.97;16129060;19;129294;-39
2022/11/29 20:14:04;;;;;;;7.00;3.20;;;;;;;20.80;41.50;102125.81;16125092;19;129630;-42
2022/11/29 20:19:26;;;;;;;9.48;3.28;;;;;;;20.67;42.05;102120.41;16127018;19;129566;-39
2022/11/29 20:24:47;;;;;;;12.82;3.88;;;;;;;20.55;42.06;102140.63;16128264;19;129638;-39
2022/11/29 20:30:10;;;;;;;26.95;4.97;;;;;;;20.43;42.10;102136.91;16128368;19;129520;-41
2022/11/29 20:35:32;;;;;;;10.60;3.83;;;;;;;20.35;42.67;102151.06;16128643;19;130234;-39
2022/11/29 20:41:11;;;;;;;13.73;4.03;;;;;;;20.29;42.76;102159.25;16121731;19;130542;-38
2022/11/29 20:46:33;;;;;;;12.57;4.07;;;;;;;20.20;43.14;102166.16;16121851;19;131131;-39
2022/11/29 20:52:02;;;;;;;18.77;4.05;;;;;;;20.17;43.21;102155.53;16121450;19;129751;-39
2022/11/29 20:57:23;;;;;;;15.40;3.95;;;;;;;20.28;43.03;102154.78;16124178;19;129122;-39
2022/11/29 21:02:45;;;;;;;8.88;3.35;;;;;;;20.62;42.87;102154.44;16126587;19;129844;-38
2022/11/29 21:08:07;;;;;;;12.38;3.35;;;;;;;21.05;42.28;102163.81;16126106;19;130065;-39
2022/11/29 21:13:29;;;;;;;8.02;3.10;;;;;;;21.32;41.87;102160.69;16127850;19;129899;-40
2022/11/29 21:18:53;;;;;;;13.25;3.00;;;;;;;21.43;41.68;102170.19;16126538;19;130945;-39
2022/11/29 21:24:40;;;;;;;7.90;2.97;;;;;;;21.41;41.83;102173.22;16125088;19;129396;-39
2022/11/29 21:30:04;;;;;;;10.13;2.60;;;;;;;21.30;41.79;102168.44;16125200;19;129507;-39
2022/11/29 21:35:26;;;;;;;9.57;3.23;;;;;;;21.16;41.77;102165.84;16122721;19;130232;-41
2022/11/29 21:40:48;;;;;;;12.98;4.43;;;;;;;21.00;41.94;102158.13;16124858;19;130913;-39
2022/11/29 21:46:10;;;;;;;19.67;4.13;;;;;;;20.84;41.80;102160.44;16122888;19;134925;-40
2022/11/29 21:51:32;;;;;;;11.00;3.63;;;;;;;20.70;42.18;102158.84;16128038;19;130091;-40
2022/11/29 21:56:54;;;;;;;10.32;4.07;;;;;;;20.56;42.08;102153.41;16121917;19;129565;-39
2022/11/29 22:02:16;;;;;;;13.43;3.70;;;;;;;20.45;42.41;102159.75;16117109;19;130236;-40
2022/11/29 22:07:38;;;;;;;6.85;3.78;;;;;;;20.35;42.31;102162.19;16123005;19;129782;-40
2022/11/29 22:13:00;;;;;;;9.65;3.28;;;;;;;20.24;42.63;102161.03;16123312;19;131110;-40
2022/11/29 22:18:25;;;;;;;9.57;3.38;;;;;;;20.14;42.44;102176.25;16119666;19;129360;-41
2022/11/29 22:23:47;;;;;;;;;;;;;;;20.03;42.98;102167.81;16117212;19;130585;-41
2022/11/29 22:29:12;;;;;;;10.60;4.13;;;;;;;19.99;42.63;102176.59;16108881;19;129692;-41
2022/11/29 22:34:34;;;;;;;6.90;3.35;;;;;;;19.93;42.79;102171.06;16110106;19;129845;-41
2022/11/29 22:39:56;;;;;;;5.95;3.13;;;;;;;19.87;42.88;102167.25;16114128;19;129682;-42
2022/11/29 22:45:18;;;;;;;5.38;3.15;;;;;;;19.82;42.77;102178.16;16115475;19;129879;-42
2022/11/29 22:50:39;;;;;;;5.03;3.25;;;;;;;19.74;43.06;102173.75;16108952;19;130494;-43
2022/11/29 22:56:03;;;;;;;6.13;3.22;;;;;;;19.71;42.87;102178.88;16106819;19;129402;-39
2022/11/29 23:01:27;;;;;;;4.88;3.10;;;;;;;19.66;42.90;102188.75;16105329;19;131152;-42
2022/11/29 23:06:49;;;;;;;7.25;3.10;;;;;;;19.62;43.30;102181.09;16110792;19;130524;-39
2022/11/29 23:12:11;;;;;;;4.70;3.03;;;;;;;19.54;43.34;102182.22;16123552;19;130811;-42
2022/11/29 23:17:33;;;;;;;6.10;3.17;;;;;;;19.49;43.30;102188.44;16130628;19;129923;-40
2022/11/29 23:22:54;;;;;;;3.63;3.10;;;;;;;19.44;43.03;102185.44;16132708;19;130353;-41
2022/11/29 23:28:17;;;;;;;6.32;3.55;;;;;;;19.39;42.98;102196.34;16128557;19;129675;-39
2022/11/29 23:33:39;;;;;;;4.57;2.80;;;;;;;19.34;43.10;102194.25;16131729;19;130138;-39
2022/11/29 23:39:00;;;;;;;5.05;3.60;;;;;;;19.30;43.06;102194.91;16130156;19;129916;-43
2022/11/29 23:44:22;;;;;;;5.50;3.28;;;;;;;19.28;43.12;102199.81;16128458;19;129074;-40
2022/11/29 23:49:44;;;;;;;3.97;2.55;;;;;;;19.24;43.12;102206.91;16127159;19;129583;-39
2022/11/29 23:55:06;;;;;;;5.28;2.75;;;;;;;19.21;43.17;102205.41;16127643;19;130826;-41
